Uploader - warcrawt

Uploader to miejsce na przechowywanie plików Twojej twórczości, którymi chcesz podzielić się na GMCLANie.

Zajęte: 32.24 MB (32%)
Najnowsze pliki graficzne w tym folderze (max. 12):
Plik Pobrań Rozmiar Data uploadu
6.png Podgląd 134 349.00 B 01.04.2014 12:12:12
75bbcdb7e1.png Podgląd 116 881.00 B 01.04.2014 12:12:12
Emote_Maker_0_2.rar 108 942.62 KB 01.04.2014 12:12:12
LibertyCity_1_.png Podgląd 111 107.03 KB 01.04.2014 12:12:12
View.png Podgląd 123 17.25 KB 01.04.2014 12:12:12
8.png Podgląd 133 464.00 B 01.04.2014 12:12:11
befae3d361.gm6 110 27.47 KB 01.04.2014 12:12:11
screen2_2_.jpg Podgląd 112 892.57 KB 01.04.2014 12:12:11
70_Chevelle.png Podgląd 109 1.91 KB 01.04.2014 12:12:11
35.png Podgląd 130 466.00 B 01.04.2014 12:12:11
m.png Podgląd 141 20.58 KB 01.04.2014 12:12:11
yugo.gif Podgląd 120 3.22 KB 01.04.2014 12:12:11
Reklama_anim.gif Podgląd 116 511.35 KB 01.04.2014 12:12:10
Pi_ka_nozna.gm6 108 11.49 KB 01.04.2014 12:12:10
23.png Podgląd 128 324.00 B 01.04.2014 12:12:10
przyk_ad1.gm6 112 6.49 KB 01.04.2014 12:12:10
Kopia_ludzik.jpg Podgląd 121 4.58 KB 01.04.2014 12:12:10
screen1.png Podgląd 125 972.05 KB 01.04.2014 12:12:10
dodawanie_napisu.gm6 112 4.57 KB 01.04.2014 12:12:10
o_uwek.gm6 112 5.19 KB 01.04.2014 12:12:10
hspeed.png Podgląd 109 357.00 B 01.04.2014 12:12:10
minimap.gm6 113 18.73 KB 01.04.2014 12:12:10
31.png Podgląd 128 644.00 B 01.04.2014 12:12:09
Platformowa.gm6 111 28.45 KB 01.04.2014 12:12:09
10.png Podgląd 126 409.00 B 01.04.2014 12:12:08
1.png Podgląd 137 328.00 B 01.04.2014 12:12:08
Drzewo03_2_.png Podgląd 113 299.67 KB 01.04.2014 12:12:08
38.png Podgląd 126 345.00 B 01.04.2014 12:12:08
32.png Podgląd 131 343.00 B 01.04.2014 12:12:08
Reklama_.png Podgląd 109 40.64 KB 01.04.2014 12:12:08
Warcrawt_Games.png Podgląd 110 26.03 KB 01.04.2014 12:12:08
aa6a86e7e8.png Podgląd 112 8.68 KB 01.04.2014 12:12:08
error.png Podgląd 118 10.07 KB 01.04.2014 12:12:08
move_to_point.png Podgląd 116 328.00 B 01.04.2014 12:12:08
33.png Podgląd 126 768.00 B 01.04.2014 12:12:08
20.png Podgląd 125 637.00 B 01.04.2014 12:12:07
Screen2.png Podgląd 117 2.25 MB 01.04.2014 12:12:07
Lost_in_War.rar 114 1.10 MB 01.04.2014 12:12:06
ITIRES.png Podgląd 112 1.08 K 01.04.2014 12:12:06
gmaker61.rar 112 3.56 MB 01.04.2014 12:12:05
Tiuning_of_car.rar 107 5.89 MB 01.04.2014 12:12:02
klikanie_co_godzine.gm6 116 6.05 KB 01.04.2014 12:12:02
03a771d259.gm6 122 18.73 KB 01.04.2014 12:11:59
24.png Podgląd 124 356.00 B 01.04.2014 12:11:58
linia.gm6 106 6.09 KB 01.04.2014 12:11:58
30.png Podgląd 129 864.00 B 01.04.2014 12:11:58
screen.png Podgląd 125 240.90 KB 01.04.2014 12:11:58
Edytor_Mapy.gm6 110 6.84 KB 01.04.2014 12:11:58
12.png Podgląd 126 344.00 B 01.04.2014 12:11:58
yugo_hideous.gif Podgląd 116 1.50 KB 01.04.2014 12:11:58
4.png Podgląd 126 384.00 B 01.04.2014 12:11:58
Lon.gm6 135 10.20 KB 01.04.2014 12:11:58
exemple.gm6 110 3.47 KB 01.04.2014 12:11:58
vspeed.png Podgląd 115 357.00 B 01.04.2014 12:11:58
Drzewo02.png Podgląd 113 46.29 KB 01.04.2014 12:11:58
Mega_Pack.rar 111 20.36 KB 01.04.2014 12:11:58
m2.png Podgląd 126 20.58 KB 01.04.2014 12:11:57
21.png Podgląd 126 416.00 B 01.04.2014 12:11:57
jump_to_start.png Podgląd 114 548.00 B 01.04.2014 12:11:57
9.png Podgląd 130 321.00 B 01.04.2014 12:11:57
move2.png Podgląd 121 366.00 B 01.04.2014 12:11:57
naruto.gm6 118 59.48 KB 01.04.2014 12:11:57
wodospad.gm6 118 6.17 KB 01.04.2014 12:11:57
Historia_bez_granic__menu_.rar 109 1.45 MB 01.04.2014 12:11:57
37.png Podgląd 131 342.00 B 01.04.2014 12:11:56
5.png Podgląd 129 288.00 B 01.04.2014 12:11:56
29.png Podgląd 127 611.00 B 01.04.2014 12:11:56
Drzewo03.png Podgląd 111 298.64 KB 01.04.2014 12:11:56
22.png Podgląd 121 476.00 B 01.04.2014 12:11:55
19.png Podgląd 124 736.00 B 01.04.2014 12:11:55
minimap3.gm6 115 14.01 KB 01.04.2014 12:11:55
13.png Podgląd 129 725.00 B 01.04.2014 12:11:55
1354ecfeba.png Podgląd 110 374.00 B 01.04.2014 12:11:55
15.png Podgląd 126 754.00 B 01.04.2014 12:11:55
17.png Podgląd 129 264.00 B 01.04.2014 12:11:55
View.gm6 119 10.44 KB 01.04.2014 12:11:55
5c80576bf7.png Podgląd 113 10.75 KB 01.04.2014 12:11:55
28.png Podgląd 120 296.00 B 01.04.2014 12:11:55
27.png Podgląd 125 838.00 B 01.04.2014 12:11:55
Mega_Tank_Wars.png Podgląd 110 56.42 KB 01.04.2014 12:11:55
72be7839ae.gm6 113 23.57 KB 01.04.2014 12:11:55
7.png Podgląd 127 299.00 B 01.04.2014 12:11:55
Screen1.jpg Podgląd 121 896.31 KB 01.04.2014 12:11:54
zawrucenie.png Podgląd 116 371.00 B 01.04.2014 12:11:54
toolbar.rar 124 14.66 KB 01.04.2014 12:11:54
przyk_ad.gm6 118 11.34 KB 01.04.2014 12:11:54
move.png Podgląd 123 383.00 B 01.04.2014 12:11:53
Kurs_C__.pdf 121 4.80 MB 01.04.2014 12:11:53
ko_.png Podgląd 134 881.00 B 01.04.2014 12:11:53
bez_tytu_u.png Podgląd 106 9.63 KB 01.04.2014 12:11:53
34.png Podgląd 131 482.00 B 01.04.2014 12:11:53
36.png Podgląd 123 357.00 B 01.04.2014 12:11:53
2.png Podgląd 129 464.00 B 01.04.2014 12:11:53
Drzewo01.png Podgląd 110 31.90 KB 01.04.2014 12:11:53
18.png Podgląd 126 551.00 B 01.04.2014 12:11:53
gravity.png Podgląd 114 347.00 B 01.04.2014 12:11:53
Mega_Tank_Wars.rar 111 2.98 MB 01.04.2014 12:11:48
Path.gm6 121 6.56 KB 01.04.2014 12:11:48
Tuning_The_Cars_2.rar 110 1.05 MB 01.04.2014 12:11:45
snapshot.png Podgląd 128 1.17 MB 01.04.2014 12:11:45
26.png Podgląd 121 753.00 B 01.04.2014 12:11:44
Rand.rar 136 1.84 KB 01.04.2014 12:11:44
14.png Podgląd 133 722.00 B 01.04.2014 12:11:44
25.png Podgląd 131 353.00 B 01.04.2014 12:11:43
auto_2d.gm6 109 366.56 KB 01.04.2014 12:11:43
16.png Podgląd 123 995.00 B 01.04.2014 12:11:43
jump_to_random.png Podgląd 113 513.00 B 01.04.2014 12:11:43
Kalkulator.rar 115 0.97 MB 01.04.2014 12:11:43
3.png Podgląd 129 218.00 B 01.04.2014 12:11:43
zawrucenie2.png Podgląd 117 362.00 B 01.04.2014 12:11:43
pi_ka.gm6 114 10.70 KB 01.04.2014 12:11:42
11.png Podgląd 129 323.00 B 01.04.2014 12:11:42
Paint.rar 118 926.95 KB 01.04.2014 12:11:42
32 MB / 100MB

Najnowsze wersje GameMakera:

Stabilna
2024.06.2.162 • 2024.6.1.208
wydana  3 dni temu
LTS
2022.0.2.51 • 2022.0.2.49
wydana 275 dni temu
Beta
2024.600.0.585 • 2024.600.0.609
wydana 21 dni temu
= IDE, = Runtime
Użytkownicy online
1 użytkownik aktywny:
gości: 1,
(~ostatnie 15 minut)
Discord
Shoutbox
gnysek (11:36, 08.07.24)
Ale w sumie taki numer GG był bezpieczniejszy niż nr. telefonu czy kontakt społecznościowy. Utrudniał stalkowanie i ułatwiał banowanie.
Wojo (08:08, 08.07.24)
Niestety to już nie te czasy kiedy pytało się kasjerki o wiek i numer Gadu-Gadu...
Adriann (08:28, 05.07.24)
Albo okraść :|
Adriann (08:28, 05.07.24)
Może pani chciała zobaczyć twoje dane i Cię poderwać :d
gnysek (10:38, 03.07.24)
Mnie ostatnio w Żabce zapytali o wiek. A mam już ponad dwie osiemnastki.
Wojo (08:27, 30.06.24)
Ogólnie to miał być żart ponieważ portal internetowy, którego można opisać jako PH jest portalem przeznaczonym dla dorosłych. Miało być śmiesznie wyszło żenująco, a wiadomości w shoutboxie nie mogę skasować :P
Wojo (09:40, 28.06.24)
Tymon jak co wizytę musiałem potwierdzić wiek
gnysek (14:15, 17.06.24)
Bo Łapusz woli alkohol, niż się organizować. Co tam Pixel Heaven, sprawdźcie jego zbiórki na książki...
Adriann (21:02, 13.06.24)
Bardzo słusznie, straszna patola z tą organizacją :D
I am Lord (08:35, 13.06.24)
Ale co jak co, zrobiło się o imprezie głośno.
Starsze wpisy znajdziesz w Archiwum.
Ankieta
Ile zarobiłeś do tej pory na grach stworzonych w GM?